Terminal Aerodrome Forecast
Issued by NWS

Home | Current Version | Previous Version | Text Only | Print | Product List | Glossary On
Versions: 1 2 3 4 5 6 7 8 9 10 11 12 13 14
000
FTUS46 KSEW 172320
TAFOLM
TAF
KOLM 172320Z 1800/1824 18012KT 5SM -RA OVC040
      TEMPO 1800/1803 3SM RA BR OVC025
     FM180600 18012KT P6SM -SHRA BKN025 OVC050
     FM181700 16010KT P6SM VCSH BKN050=

USA.gov is the U.S. government's official web portal to all federal, state and local government web resources and services.